sensor_id;sensor_type;location;lat;lon;timestamp;P1;durP1;ratioP1;P2;durP2;ratioP2
9518;SDS011;4797;50.220;8.782;2022-09-03T00:01:38;75.83;;;49.47;;
9518;SDS011;4797;50.220;8.782;2022-09-03T00:04:09;83.23;;;53.40;;
9518;SDS011;4797;50.220;8.782;2022-09-03T00:06:47;78.27;;;51.33;;
9518;SDS011;4797;50.220;8.782;2022-09-03T00:09:18;79.93;;;52.57;;
9518;SDS011;4797;50.220;8.782;2022-09-03T00:11:51;87.80;;;58.03;;
9518;SDS011;4797;50.220;8.782;2022-09-03T00:14:25;79.20;;;51.23;;
9518;SDS011;4797;50.220;8.782;2022-09-03T00:16:55;78.30;;;49.83;;
9518;SDS011;4797;50.220;8.782;2022-09-03T00:19:26;97.33;;;58.53;;
9518;SDS011;4797;50.220;8.782;2022-09-03T00:21:56;83.60;;;55.13;;
9518;SDS011;4797;50.220;8.782;2022-09-03T00:24:27;89.53;;;58.03;;
9518;SDS011;4797;50.220;8.782;2022-09-03T00:26:58;80.33;;;52.47;;
9518;SDS011;4797;50.220;8.782;2022-09-03T00:29:30;82.27;;;54.07;;
9518;SDS011;4797;50.220;8.782;2022-09-03T00:32:02;82.33;;;53.63;;
9518;SDS011;4797;50.220;8.782;2022-09-03T00:34:33;76.50;;;49.57;;
9518;SDS011;4797;50.220;8.782;2022-09-03T00:37:04;77.37;;;50.53;;
9518;SDS011;4797;50.220;8.782;2022-09-03T00:39:39;79.20;;;51.87;;
9518;SDS011;4797;50.220;8.782;2022-09-03T00:42:14;76.73;;;50.93;;
9518;SDS011;4797;50.220;8.782;2022-09-03T00:47:43;79.73;;;51.80;;
9518;SDS011;4797;50.220;8.782;2022-09-03T00:50:16;79.33;;;51.57;;
9518;SDS011;4797;50.220;8.782;2022-09-03T00:52:50;80.20;;;52.07;;
9518;SDS011;4797;50.220;8.782;2022-09-03T00:55:25;102.00;;;54.13;;
9518;SDS011;4797;50.220;8.782;2022-09-03T00:57:57;86.40;;;51.20;;
9518;SDS011;4797;50.220;8.782;2022-09-03T01:00:35;80.20;;;52.13;;
9518;SDS011;4797;50.220;8.782;2022-09-03T01:03:05;80.73;;;52.67;;
9518;SDS011;4797;50.220;8.782;2022-09-03T01:05:46;83.40;;;54.43;;
9518;SDS011;4797;50.220;8.782;2022-09-03T01:08:35;79.93;;;52.13;;
9518;SDS011;4797;50.220;8.782;2022-09-03T01:11:16;72.30;;;47.33;;
9518;SDS011;4797;50.220;8.782;2022-09-03T01:13:47;72.23;;;47.00;;
9518;SDS011;4797;50.220;8.782;2022-09-03T01:16:19;83.50;;;55.33;;
9518;SDS011;4797;50.220;8.782;2022-09-03T01:18:53;80.57;;;53.17;;
9518;SDS011;4797;50.220;8.782;2022-09-03T01:21:36;75.00;;;47.63;;
9518;SDS011;4797;50.220;8.782;2022-09-03T01:24:12;81.40;;;53.77;;
9518;SDS011;4797;50.220;8.782;2022-09-03T01:26:50;74.90;;;48.47;;
9518;SDS011;4797;50.220;8.782;2022-09-03T01:29:26;81.83;;;52.70;;
9518;SDS011;4797;50.220;8.782;2022-09-03T01:31:57;83.30;;;54.63;;
9518;SDS011;4797;50.220;8.782;2022-09-03T01:34:32;78.57;;;50.30;;
9518;SDS011;4797;50.220;8.782;2022-09-03T01:37:05;78.60;;;51.37;;
9518;SDS011;4797;50.220;8.782;2022-09-03T01:39:36;78.97;;;51.63;;
9518;SDS011;4797;50.220;8.782;2022-09-03T01:42:11;82.20;;;51.20;;
9518;SDS011;4797;50.220;8.782;2022-09-03T01:44:54;71.03;;;46.23;;
9518;SDS011;4797;50.220;8.782;2022-09-03T01:47:33;75.07;;;49.57;;
9518;SDS011;4797;50.220;8.782;2022-09-03T01:50:06;77.57;;;50.90;;
9518;SDS011;4797;50.220;8.782;2022-09-03T01:52:39;73.97;;;47.57;;
9518;SDS011;4797;50.220;8.782;2022-09-03T01:55:12;80.70;;;53.30;;
9518;SDS011;4797;50.220;8.782;2022-09-03T01:57:47;80.90;;;52.03;;
9518;SDS011;4797;50.220;8.782;2022-09-03T02:00:18;72.93;;;46.87;;
9518;SDS011;4797;50.220;8.782;2022-09-03T02:02:48;72.57;;;47.37;;
9518;SDS011;4797;50.220;8.782;2022-09-03T02:05:18;76.73;;;50.13;;
9518;SDS011;4797;50.220;8.782;2022-09-03T02:07:50;70.57;;;45.90;;
9518;SDS011;4797;50.220;8.782;2022-09-03T02:10:20;78.57;;;47.57;;
9518;SDS011;4797;50.220;8.782;2022-09-03T02:12:50;71.67;;;47.30;;
9518;SDS011;4797;50.220;8.782;2022-09-03T02:15:21;80.27;;;52.57;;
9518;SDS011;4797;50.220;8.782;2022-09-03T02:17:50;74.10;;;46.23;;
9518;SDS011;4797;50.220;8.782;2022-09-03T02:20:22;76.10;;;48.27;;
9518;SDS011;4797;50.220;8.782;2022-09-03T02:22:52;80.37;;;52.67;;
9518;SDS011;4797;50.220;8.782;2022-09-03T02:25:20;73.90;;;48.63;;
9518;SDS011;4797;50.220;8.782;2022-09-03T02:27:50;72.43;;;47.07;;
9518;SDS011;4797;50.220;8.782;2022-09-03T02:30:18;80.33;;;53.13;;
9518;SDS011;4797;50.220;8.782;2022-09-03T02:32:48;75.40;;;49.83;;
9518;SDS011;4797;50.220;8.782;2022-09-03T02:35:16;75.87;;;49.13;;
9518;SDS011;4797;50.220;8.782;2022-09-03T02:37:46;77.33;;;50.97;;
9518;SDS011;4797;50.220;8.782;2022-09-03T02:40:15;72.23;;;47.70;;
9518;SDS011;4797;50.220;8.782;2022-09-03T02:42:44;76.70;;;50.23;;
9518;SDS011;4797;50.220;8.782;2022-09-03T02:45:18;74.00;;;48.13;;
9518;SDS011;4797;50.220;8.782;2022-09-03T02:47:50;80.33;;;51.27;;
9518;SDS011;4797;50.220;8.782;2022-09-03T02:50:19;77.80;;;50.43;;
9518;SDS011;4797;50.220;8.782;2022-09-03T02:52:47;76.77;;;50.07;;
9518;SDS011;4797;50.220;8.782;2022-09-03T02:55:15;78.03;;;51.00;;
9518;SDS011;4797;50.220;8.782;2022-09-03T02:57:44;79.40;;;46.53;;
9518;SDS011;4797;50.220;8.782;2022-09-03T03:00:13;76.43;;;49.83;;
9518;SDS011;4797;50.220;8.782;2022-09-03T03:02:41;85.63;;;53.07;;
9518;SDS011;4797;50.220;8.782;2022-09-03T03:05:14;70.30;;;45.93;;
9518;SDS011;4797;50.220;8.782;2022-09-03T03:07:45;76.27;;;48.90;;
9518;SDS011;4797;50.220;8.782;2022-09-03T03:10:14;76.63;;;50.47;;
9518;SDS011;4797;50.220;8.782;2022-09-03T03:12:42;72.70;;;48.20;;
9518;SDS011;4797;50.220;8.782;2022-09-03T03:15:12;79.40;;;51.57;;
9518;SDS011;4797;50.220;8.782;2022-09-03T03:17:40;90.80;;;55.13;;
9518;SDS011;4797;50.220;8.782;2022-09-03T03:20:09;74.00;;;48.40;;
9518;SDS011;4797;50.220;8.782;2022-09-03T03:22:39;75.70;;;49.63;;
9518;SDS011;4797;50.220;8.782;2022-09-03T03:25:07;78.17;;;49.03;;
9518;SDS011;4797;50.220;8.782;2022-09-03T03:27:36;73.73;;;48.63;;
9518;SDS011;4797;50.220;8.782;2022-09-03T03:30:07;73.40;;;47.80;;
9518;SDS011;4797;50.220;8.782;2022-09-03T03:32:38;75.33;;;49.67;;
9518;SDS011;4797;50.220;8.782;2022-09-03T03:35:06;72.07;;;47.23;;
9518;SDS011;4797;50.220;8.782;2022-09-03T03:37:36;72.93;;;47.53;;
9518;SDS011;4797;50.220;8.782;2022-09-03T03:40:07;74.33;;;46.63;;
9518;SDS011;4797;50.220;8.782;2022-09-03T03:42:37;80.57;;;51.40;;
9518;SDS011;4797;50.220;8.782;2022-09-03T03:45:06;72.57;;;48.30;;
9518;SDS011;4797;50.220;8.782;2022-09-03T03:47:35;73.03;;;48.20;;
9518;SDS011;4797;50.220;8.782;2022-09-03T03:50:04;72.80;;;48.07;;
9518;SDS011;4797;50.220;8.782;2022-09-03T14:51:25;99.87;;;56.87;;
9518;SDS011;4797;50.220;8.782;2022-09-03T14:54:05;102.53;;;60.70;;
9518;SDS011;4797;50.220;8.782;2022-09-03T14:56:44;102.17;;;57.67;;
9518;SDS011;4797;50.220;8.782;2022-09-03T14:59:17;93.10;;;58.63;;
9518;SDS011;4797;50.220;8.782;2022-09-03T15:01:51;89.83;;;58.40;;
9518;SDS011;4797;50.220;8.782;2022-09-03T15:07:05;89.00;;;54.73;;
9518;SDS011;4797;50.220;8.782;2022-09-03T15:09:37;89.50;;;53.97;;
9518;SDS011;4797;50.220;8.782;2022-09-03T15:12:07;93.70;;;59.67;;
9518;SDS011;4797;50.220;8.782;2022-09-03T15:14:38;95.70;;;61.67;;
9518;SDS011;4797;50.220;8.782;2022-09-03T15:17:16;87.67;;;56.70;;
9518;SDS011;4797;50.220;8.782;2022-09-03T15:19:51;86.50;;;56.43;;
9518;SDS011;4797;50.220;8.782;2022-09-03T15:22:29;85.33;;;55.70;;
9518;SDS011;4797;50.220;8.782;2022-09-03T15:25:05;92.80;;;56.60;;
9518;SDS011;4797;50.220;8.782;2022-09-03T15:27:45;84.70;;;53.40;;
9518;SDS011;4797;50.220;8.782;2022-09-03T15:30:16;91.60;;;59.40;;
9518;SDS011;4797;50.220;8.782;2022-09-03T15:32:51;87.27;;;55.83;;
9518;SDS011;4797;50.220;8.782;2022-09-03T15:35:29;94.30;;;60.77;;
9518;SDS011;4797;50.220;8.782;2022-09-03T15:38:02;86.03;;;53.63;;
9518;SDS011;4797;50.220;8.782;2022-09-03T15:40:31;88.10;;;55.67;;
9518;SDS011;4797;50.220;8.782;2022-09-03T15:43:03;92.30;;;58.40;;
9518;SDS011;4797;50.220;8.782;2022-09-03T15:45:34;95.03;;;60.40;;
9518;SDS011;4797;50.220;8.782;2022-09-03T15:48:09;95.00;;;58.83;;
9518;SDS011;4797;50.220;8.782;2022-09-03T15:50:47;93.77;;;58.03;;
9518;SDS011;4797;50.220;8.782;2022-09-03T15:53:20;97.63;;;58.80;;
9518;SDS011;4797;50.220;8.782;2022-09-03T15:56:02;95.93;;;58.70;;
9518;SDS011;4797;50.220;8.782;2022-09-03T15:58:40;97.00;;;57.87;;
9518;SDS011;4797;50.220;8.782;2022-09-03T16:01:10;96.27;;;58.30;;
9518;SDS011;4797;50.220;8.782;2022-09-03T16:03:42;95.70;;;56.20;;
9518;SDS011;4797;50.220;8.782;2022-09-03T16:06:19;93.07;;;54.73;;
9518;SDS011;4797;50.220;8.782;2022-09-03T16:08:51;96.07;;;57.20;;
9518;SDS011;4797;50.220;8.782;2022-09-03T16:11:26;94.60;;;55.87;;
9518;SDS011;4797;50.220;8.782;2022-09-03T16:14:02;94.90;;;56.03;;
9518;SDS011;4797;50.220;8.782;2022-09-03T16:16:41;93.63;;;54.97;;
9518;SDS011;4797;50.220;8.782;2022-09-03T16:19:13;100.70;;;60.67;;
9518;SDS011;4797;50.220;8.782;2022-09-03T16:21:45;100.50;;;60.00;;
9518;SDS011;4797;50.220;8.782;2022-09-03T16:24:17;99.70;;;59.23;;
9518;SDS011;4797;50.220;8.782;2022-09-03T16:26:49;100.40;;;60.10;;
9518;SDS011;4797;50.220;8.782;2022-09-03T16:29:20;93.70;;;54.70;;
9518;SDS011;4797;50.220;8.782;2022-09-03T16:31:58;101.17;;;60.47;;
9518;SDS011;4797;50.220;8.782;2022-09-03T16:34:32;97.43;;;57.63;;
9518;SDS011;4797;50.220;8.782;2022-09-03T16:37:07;100.07;;;60.13;;
9518;SDS011;4797;50.220;8.782;2022-09-03T16:39:45;96.90;;;58.30;;
9518;SDS011;4797;50.220;8.782;2022-09-03T16:42:17;97.40;;;57.97;;
9518;SDS011;4797;50.220;8.782;2022-09-03T16:44:50;95.23;;;56.20;;
9518;SDS011;4797;50.220;8.782;2022-09-03T16:47:25;98.13;;;58.40;;
9518;SDS011;4797;50.220;8.782;2022-09-03T16:49:59;97.60;;;56.33;;
9518;SDS011;4797;50.220;8.782;2022-09-03T16:52:35;97.23;;;56.03;;
9518;SDS011;4797;50.220;8.782;2022-09-03T16:55:14;96.20;;;57.20;;
9518;SDS011;4797;50.220;8.782;2022-09-03T16:57:50;95.20;;;56.83;;
9518;SDS011;4797;50.220;8.782;2022-09-03T17:00:25;101.37;;;59.07;;
9518;SDS011;4797;50.220;8.782;2022-09-03T17:03:03;95.33;;;56.17;;
9518;SDS011;4797;50.220;8.782;2022-09-03T17:05:56;100.63;;;59.10;;
9518;SDS011;4797;50.220;8.782;2022-09-03T17:08:27;106.40;;;64.27;;
9518;SDS011;4797;50.220;8.782;2022-09-03T17:11:04;95.83;;;57.17;;
9518;SDS011;4797;50.220;8.782;2022-09-03T17:13:39;101.10;;;59.77;;
9518;SDS011;4797;50.220;8.782;2022-09-03T17:16:12;94.50;;;55.70;;
9518;SDS011;4797;50.220;8.782;2022-09-03T17:18:50;94.20;;;55.43;;
9518;SDS011;4797;50.220;8.782;2022-09-03T17:21:32;98.33;;;57.33;;
9518;SDS011;4797;50.220;8.782;2022-09-03T17:27:04;96.93;;;58.07;;
9518;SDS011;4797;50.220;8.782;2022-09-03T17:29:41;93.77;;;55.73;;
9518;SDS011;4797;50.220;8.782;2022-09-03T17:32:17;98.53;;;58.90;;
9518;SDS011;4797;50.220;8.782;2022-09-03T17:34:49;94.63;;;55.60;;
9518;SDS011;4797;50.220;8.782;2022-09-03T17:37:21;96.33;;;58.83;;
9518;SDS011;4797;50.220;8.782;2022-09-03T17:39:54;159.90;;;116.63;;
9518;SDS011;4797;50.220;8.782;2022-09-03T17:42:28;101.07;;;63.97;;
9518;SDS011;4797;50.220;8.782;2022-09-03T17:45:00;96.43;;;57.57;;
9518;SDS011;4797;50.220;8.782;2022-09-03T17:47:32;91.13;;;53.60;;
9518;SDS011;4797;50.220;8.782;2022-09-03T17:50:06;99.00;;;58.30;;
9518;SDS011;4797;50.220;8.782;2022-09-03T17:52:40;98.50;;;58.93;;
9518;SDS011;4797;50.220;8.782;2022-09-03T17:55:12;88.47;;;52.43;;
9518;SDS011;4797;50.220;8.782;2022-09-03T17:57:44;103.90;;;60.60;;
9518;SDS011;4797;50.220;8.782;2022-09-03T18:00:19;118.53;;;76.30;;
9518;SDS011;4797;50.220;8.782;2022-09-03T18:02:50;103.67;;;61.60;;
9518;SDS011;4797;50.220;8.782;2022-09-03T18:05:21;90.33;;;52.70;;
9518;SDS011;4797;50.220;8.782;2022-09-03T18:07:51;97.10;;;55.73;;
9518;SDS011;4797;50.220;8.782;2022-09-03T18:10:24;95.43;;;55.20;;
9518;SDS011;4797;50.220;8.782;2022-09-03T18:12:58;96.40;;;56.90;;
9518;SDS011;4797;50.220;8.782;2022-09-03T18:15:35;99.30;;;56.23;;
9518;SDS011;4797;50.220;8.782;2022-09-03T18:18:04;90.03;;;50.97;;
9518;SDS011;4797;50.220;8.782;2022-09-03T18:20:39;87.57;;;50.67;;
9518;SDS011;4797;50.220;8.782;2022-09-03T18:23:46;93.17;;;53.47;;
9518;SDS011;4797;50.220;8.782;2022-09-03T18:26:34;98.03;;;56.50;;
9518;SDS011;4797;50.220;8.782;2022-09-03T18:29:24;98.60;;;57.13;;
9518;SDS011;4797;50.220;8.782;2022-09-03T18:32:19;93.00;;;52.80;;
9518;SDS011;4797;50.220;8.782;2022-09-03T18:35:06;96.63;;;55.07;;
9518;SDS011;4797;50.220;8.782;2022-09-03T18:37:52;96.63;;;55.80;;
9518;SDS011;4797;50.220;8.782;2022-09-03T18:40:38;95.97;;;55.93;;
9518;SDS011;4797;50.220;8.782;2022-09-03T18:43:29;96.60;;;53.83;;
9518;SDS011;4797;50.220;8.782;2022-09-03T18:46:20;88.53;;;51.10;;
9518;SDS011;4797;50.220;8.782;2022-09-03T18:49:28;96.13;;;55.77;;
9518;SDS011;4797;50.220;8.782;2022-09-03T18:52:17;94.53;;;53.77;;
9518;SDS011;4797;50.220;8.782;2022-09-03T18:55:06;95.07;;;55.20;;
9518;SDS011;4797;50.220;8.782;2022-09-03T18:57:59;93.00;;;54.27;;
9518;SDS011;4797;50.220;8.782;2022-09-03T19:00:50;94.33;;;54.57;;
9518;SDS011;4797;50.220;8.782;2022-09-03T19:03:44;92.67;;;54.50;;
9518;SDS011;4797;50.220;8.782;2022-09-03T19:06:37;94.67;;;54.07;;
9518;SDS011;4797;50.220;8.782;2022-09-03T19:23:19;96.93;;;52.87;;
9518;SDS011;4797;50.220;8.782;2022-09-03T19:26:17;90.37;;;52.87;;
9518;SDS011;4797;50.220;8.782;2022-09-03T19:29:07;101.87;;;55.53;;
9518;SDS011;4797;50.220;8.782;2022-09-03T19:31:59;89.50;;;51.83;;
9518;SDS011;4797;50.220;8.782;2022-09-03T19:34:54;95.13;;;52.97;;
9518;SDS011;4797;50.220;8.782;2022-09-03T19:37:47;92.20;;;55.13;;
9518;SDS011;4797;50.220;8.782;2022-09-03T19:40:44;88.97;;;51.63;;
9518;SDS011;4797;50.220;8.782;2022-09-03T19:43:36;88.47;;;51.83;;
9518;SDS011;4797;50.220;8.782;2022-09-03T19:46:27;88.77;;;51.63;;
9518;SDS011;4797;50.220;8.782;2022-09-03T19:49:16;102.53;;;61.07;;
9518;SDS011;4797;50.220;8.782;2022-09-03T19:52:07;90.57;;;52.47;;
9518;SDS011;4797;50.220;8.782;2022-09-03T19:54:55;88.40;;;52.93;;
9518;SDS011;4797;50.220;8.782;2022-09-03T19:57:44;89.83;;;53.00;;
9518;SDS011;4797;50.220;8.782;2022-09-03T20:00:51;89.80;;;53.17;;
9518;SDS011;4797;50.220;8.782;2022-09-03T20:03:37;90.70;;;52.97;;
9518;SDS011;4797;50.220;8.782;2022-09-03T20:06:23;88.87;;;51.97;;
9518;SDS011;4797;50.220;8.782;2022-09-03T20:09:09;97.97;;;57.93;;
9518;SDS011;4797;50.220;8.782;2022-09-03T20:11:59;88.17;;;50.63;;
9518;SDS011;4797;50.220;8.782;2022-09-03T20:14:36;87.90;;;51.77;;
9518;SDS011;4797;50.220;8.782;2022-09-03T20:17:06;91.97;;;54.37;;
9518;SDS011;4797;50.220;8.782;2022-09-03T20:19:42;93.43;;;53.83;;
9518;SDS011;4797;50.220;8.782;2022-09-03T20:22:14;91.37;;;53.47;;
9518;SDS011;4797;50.220;8.782;2022-09-03T20:24:51;88.00;;;52.13;;
9518;SDS011;4797;50.220;8.782;2022-09-03T20:27:27;87.37;;;51.17;;
9518;SDS011;4797;50.220;8.782;2022-09-03T20:30:00;89.50;;;51.97;;
9518;SDS011;4797;50.220;8.782;2022-09-03T20:32:41;89.27;;;52.93;;
9518;SDS011;4797;50.220;8.782;2022-09-03T20:35:20;89.57;;;53.37;;
9518;SDS011;4797;50.220;8.782;2022-09-03T20:38:02;87.40;;;52.23;;
9518;SDS011;4797;50.220;8.782;2022-09-03T20:40:39;89.03;;;53.13;;
9518;SDS011;4797;50.220;8.782;2022-09-03T20:43:20;94.03;;;54.60;;
9518;SDS011;4797;50.220;8.782;2022-09-03T20:45:59;91.07;;;55.17;;
9518;SDS011;4797;50.220;8.782;2022-09-03T20:48:33;92.00;;;55.43;;
9518;SDS011;4797;50.220;8.782;2022-09-03T20:51:03;88.63;;;52.87;;
9518;SDS011;4797;50.220;8.782;2022-09-03T20:53:53;93.67;;;56.60;;
9518;SDS011;4797;50.220;8.782;2022-09-03T20:56:25;90.43;;;54.27;;
9518;SDS011;4797;50.220;8.782;2022-09-03T20:58:57;87.17;;;52.30;;
9518;SDS011;4797;50.220;8.782;2022-09-03T21:01:32;89.33;;;53.40;;
9518;SDS011;4797;50.220;8.782;2022-09-03T21:04:04;88.93;;;52.70;;
9518;SDS011;4797;50.220;8.782;2022-09-03T21:06:35;85.70;;;50.97;;
9518;SDS011;4797;50.220;8.782;2022-09-03T21:09:13;93.83;;;57.00;;
9518;SDS011;4797;50.220;8.782;2022-09-03T21:11:45;90.07;;;54.10;;
9518;SDS011;4797;50.220;8.782;2022-09-03T21:14:18;90.93;;;54.03;;
9518;SDS011;4797;50.220;8.782;2022-09-03T21:16:52;89.03;;;52.70;;
9518;SDS011;4797;50.220;8.782;2022-09-03T21:19:26;88.57;;;52.83;;
9518;SDS011;4797;50.220;8.782;2022-09-03T21:22:01;91.43;;;54.17;;
9518;SDS011;4797;50.220;8.782;2022-09-03T21:24:33;93.77;;;53.30;;
9518;SDS011;4797;50.220;8.782;2022-09-03T21:27:03;84.60;;;49.80;;
9518;SDS011;4797;50.220;8.782;2022-09-03T21:38:52;87.07;;;52.27;;
9518;SDS011;4797;50.220;8.782;2022-09-03T21:41:25;86.47;;;52.03;;
9518;SDS011;4797;50.220;8.782;2022-09-03T21:43:56;84.47;;;50.93;;
9518;SDS011;4797;50.220;8.782;2022-09-03T21:46:26;86.63;;;51.30;;
9518;SDS011;4797;50.220;8.782;2022-09-03T21:49:00;92.03;;;55.83;;
9518;SDS011;4797;50.220;8.782;2022-09-03T21:51:31;85.77;;;53.00;;
9518;SDS011;4797;50.220;8.782;2022-09-03T21:54:03;84.27;;;50.83;;
9518;SDS011;4797;50.220;8.782;2022-09-03T21:59:57;93.30;;;56.23;;
9518;SDS011;4797;50.220;8.782;2022-09-03T22:02:31;87.07;;;51.50;;
9518;SDS011;4797;50.220;8.782;2022-09-03T22:05:04;91.30;;;54.83;;
9518;SDS011;4797;50.220;8.782;2022-09-03T22:10:25;90.87;;;55.50;;
9518;SDS011;4797;50.220;8.782;2022-09-03T22:12:56;79.87;;;50.60;;
9518;SDS011;4797;50.220;8.782;2022-09-03T22:15:32;82.67;;;50.97;;
9518;SDS011;4797;50.220;8.782;2022-09-03T22:18:03;82.73;;;51.47;;
9518;SDS011;4797;50.220;8.782;2022-09-03T22:20:40;82.97;;;51.47;;
9518;SDS011;4797;50.220;8.782;2022-09-03T22:23:16;82.03;;;51.50;;
9518;SDS011;4797;50.220;8.782;2022-09-03T22:25:51;87.47;;;55.40;;
9518;SDS011;4797;50.220;8.782;2022-09-03T22:28:27;85.17;;;53.97;;
9518;SDS011;4797;50.220;8.782;2022-09-03T22:30:59;92.33;;;58.10;;
9518;SDS011;4797;50.220;8.782;2022-09-03T22:33:29;87.40;;;55.03;;
9518;SDS011;4797;50.220;8.782;2022-09-03T22:36:04;83.30;;;53.10;;
9518;SDS011;4797;50.220;8.782;2022-09-03T22:38:39;80.77;;;51.23;;
9518;SDS011;4797;50.220;8.782;2022-09-03T22:41:17;79.90;;;51.07;;
9518;SDS011;4797;50.220;8.782;2022-09-03T22:43:48;80.37;;;51.27;;
9518;SDS011;4797;50.220;8.782;2022-09-03T22:46:22;79.97;;;51.10;;
9518;SDS011;4797;50.220;8.782;2022-09-03T22:48:59;90.43;;;53.97;;
9518;SDS011;4797;50.220;8.782;2022-09-03T22:51:36;81.00;;;51.67;;
9518;SDS011;4797;50.220;8.782;2022-09-03T22:54:19;81.33;;;51.93;;
9518;SDS011;4797;50.220;8.782;2022-09-03T22:56:51;80.57;;;51.43;;
9518;SDS011;4797;50.220;8.782;2022-09-03T22:59:20;85.73;;;54.33;;
9518;SDS011;4797;50.220;8.782;2022-09-03T23:01:55;83.20;;;53.17;;
9518;SDS011;4797;50.220;8.782;2022-09-03T23:04:26;82.03;;;51.77;;
9518;SDS011;4797;50.220;8.782;2022-09-03T23:06:58;82.47;;;52.10;;
9518;SDS011;4797;50.220;8.782;2022-09-03T23:09:34;80.90;;;51.87;;
9518;SDS011;4797;50.220;8.782;2022-09-03T23:12:06;76.80;;;49.63;;
9518;SDS011;4797;50.220;8.782;2022-09-03T23:14:37;118.60;;;75.83;;
9518;SDS011;4797;50.220;8.782;2022-09-03T23:17:17;81.57;;;52.53;;
9518;SDS011;4797;50.220;8.782;2022-09-03T23:19:47;84.33;;;54.40;;
9518;SDS011;4797;50.220;8.782;2022-09-03T23:22:18;81.27;;;52.90;;
9518;SDS011;4797;50.220;8.782;2022-09-03T23:24:48;80.77;;;52.57;;
9518;SDS011;4797;50.220;8.782;2022-09-03T23:27:19;78.47;;;52.07;;
9518;SDS011;4797;50.220;8.782;2022-09-03T23:29:51;85.67;;;55.03;;
9518;SDS011;4797;50.220;8.782;2022-09-03T23:32:21;79.73;;;49.73;;
9518;SDS011;4797;50.220;8.782;2022-09-03T23:34:58;81.73;;;52.60;;
9518;SDS011;4797;50.220;8.782;2022-09-03T23:37:41;82.13;;;52.50;;
9518;SDS011;4797;50.220;8.782;2022-09-03T23:40:15;80.33;;;52.20;;
9518;SDS011;4797;50.220;8.782;2022-09-03T23:43:00;81.27;;;53.57;;
9518;SDS011;4797;50.220;8.782;2022-09-03T23:45:34;79.17;;;53.13;;
9518;SDS011;4797;50.220;8.782;2022-09-03T23:48:06;89.07;;;58.13;;
9518;SDS011;4797;50.220;8.782;2022-09-03T23:50:39;76.13;;;49.27;;
9518;SDS011;4797;50.220;8.782;2022-09-03T23:56:06;80.77;;;53.03;;
9518;SDS011;4797;50.220;8.782;2022-09-03T23:58:42;85.97;;;55.70;;
